Архив погоды в Усть-Оленеке

Метеограмма Усть-Оленек
Понедельник, 24 Июня
Время местн. Темп Ветер Видим Явления Облачность нижн/средн/верх Атм. давл. Влжн Точка росы ВНГО R Сост. почвы Tg s
Напр Скр Прв ур.ст ур.м изм
21:00 +4.4° С-В 2 - более 50 км - облачно 761 762 -0.1 74% +0.2° 1 км 0 - - -
18:00 +4.7° С-В 1 - более 50 км - облачно 761 762 +0.1 79% +1.4° 300 м - - - -
15:00 +6.4° штиль 0 - более 50 км - облачно 761 762 -0.3 70% +1.4° 1 км - - - -
12:00 +4.9° С 1 - более 50 км - облачно 761 762 -0.2 73% +0.5° 1 км - - - -
09:00 +2.6° штиль 0 - более 50 км - облачно 761 763 +0.1 84% +0.2° 300 м 0 Влажная (без луж) +2° -
00:00 +1.6° штиль 0 - более 50 км - облачно 761 762 -0.2 85% -0.6° 300 м - - - -
Воскресенье, 23 Июня
Время местн. Темп Ветер Видим Явления Облачность нижн/средн/верх Атм. давл. Влжн Точка росы ВНГО R Сост. почвы Tg s
Напр Скр Прв ур.ст ур.м изм
21:00 +3.6° С,С-В 1 - более 50 км - облачно 761 763 +0.2 77% -0.1° 1 км 0 - - -
18:00 +3.1° С 2 - более 50 км - облачно 761 762 +0.2 79% -0.1° 1 км - - - -
15:00 +5.4° штиль 0 - более 50 км - облачно 761 762 -0.3 74% +1.1° 1 км - - - -
12:00 +3.8° С 1 - более 50 км - облачно 761 762 0 85% +1.5° 300 м - - - -
09:00 +3.2° С 2 - более 50 км - облачно 761 762 +0.2 90% +1.7° 300 м 0 Влажная (без луж) +4° -
00:00 +3.7° С 2 10 более 50 км - облачно 760 762 +0.5 90% +2.2° 600 м - - - -
Суббота, 22 Июня
Время местн. Темп Ветер Видим Явления Облачность нижн/средн/верх Атм. давл. Влжн Точка росы ВНГО R Сост. почвы Tg s
Напр Скр Прв ур.ст ур.м изм
21:00 +3.2° С 6 13 более 50 км - облачно 760 761 +0.1 88% +1.4° 600 м 0 - - -
18:00 +3.7° С,С-З 7 14 более 50 км - облачно 760 761 +1.3 87% +1.7° 300 м - - - -
15:00 +5.8° С 8 13 более 50 км - облачно 759 760 +0.2 89% +4.2° 300 м - - - -
12:00 +4.7° С-З 4 - более 50 км - облачно 758 760 +0.5 90% +3.2° 300 м - - - -
09:00 +5.8° С-З 5 - более 50 км - облачно 758 759 +0.5 86% +3.7° 1 км 0 Влажная (без луж) +5° -
00:00 +11.7° С,С-В 2 - более 50 км - переменная облачность 756 757 +0.4 70% +6.4° более 2.5 км - - - -
Пятница, 21 Июня
Время местн. Темп Ветер Видим Явления Облачность нижн/средн/верх Атм. давл. Влжн Точка росы ВНГО R Сост. почвы Tg s
Напр Скр Прв ур.ст ур.м изм
21:00 +10.4° С 4 - более 50 км - переменная облачность 756 757 +0.8 71% +5.4° 300 м 0 - - -
18:00 +17.9° В 3 11 более 50 км - облачно 755 756 -0.5 52% +7.9° более 2.5 км - - - -
15:00 +15.3° В 6 11 более 50 км - облачно 755 757 -1.3 58% +7.2° более 2.5 км - - - -
12:00 +10.2° В 6 13 более 50 км - переменная облачность 757 758 -1.2 75% +5.9° 1 км - - - -
09:00 +8° В 5 - более 50 км - облачно 758 760 -1.3 82% +5.1° 1 км 0 Влажная (без луж) +7° -
00:00 +12.6° В 4 - более 50 км - облачно 762 763 -0.4 55% +3.7° 1.5 км - - - -
Четверг, 20 Июня
Время местн. Темп Ветер Видим Явления Облачность нижн/средн/верх Атм. давл. Влжн Точка росы ВНГО R Сост. почвы Tg s
Напр Скр Прв ур.ст ур.м изм
21:00 +14.9° В 5 - более 50 км - переменная облачность 762 763 -0.4 51% +4.9° более 2.5 км 0 - - -
18:00 +15.2° В 4 - более 50 км - облачно 762 764 -0.2 46% +3.7° более 2.5 км - - - -